createdAt,value
2018-12-01T00:00:08.241Z,17.95
2018-12-01T00:02:36.824Z,18.07
2018-12-01T00:05:05.111Z,17.57
2018-12-01T00:07:33.266Z,18.40
2018-12-01T00:10:01.480Z,18.60
2018-12-01T00:12:29.689Z,18.12
2018-12-01T00:14:57.882Z,19.17
2018-12-01T00:17:26.072Z,18.42
2018-12-01T00:19:54.311Z,18.73
2018-12-01T00:22:22.482Z,17.90
2018-12-01T00:24:50.938Z,18.77
2018-12-01T00:27:19.088Z,20.02
2018-12-01T00:29:47.395Z,17.95
2018-12-01T00:32:15.642Z,18.65
2018-12-01T00:34:43.781Z,18.30
2018-12-01T00:37:11.952Z,17.85
2018-12-01T00:39:40.206Z,18.73
2018-12-01T00:42:08.394Z,20.48
2018-12-01T00:44:36.576Z,20.10
2018-12-01T00:47:04.925Z,19.92
2018-12-01T00:49:33.140Z,20.00
2018-12-01T00:52:01.346Z,21.87
2018-12-01T00:54:29.587Z,20.25
2018-12-01T00:56:57.746Z,20.52
2018-12-01T00:59:26.022Z,20.05
2018-12-01T01:01:54.248Z,17.40
2018-12-01T01:04:22.446Z,19.30
2018-12-01T01:06:50.654Z,17.00
2018-12-01T01:09:18.839Z,19.70
2018-12-01T01:11:47.928Z,18.77
2018-12-01T01:14:16.108Z,18.05
2018-12-01T01:16:44.375Z,18.73
2018-12-01T01:19:12.546Z,19.17
2018-12-01T01:21:40.719Z,19.17
2018-12-01T01:24:08.934Z,21.27
2018-12-01T01:26:37.138Z,19.70
2018-12-01T01:29:05.622Z,19.90
2018-12-01T01:31:33.810Z,21.20
2018-12-01T01:34:01.994Z,21.40
2018-12-01T01:36:30.224Z,21.27
2018-12-01T01:38:58.410Z,20.30
2018-12-01T01:41:26.607Z,19.57
2018-12-01T01:43:54.773Z,18.90
2018-12-01T01:46:23.016Z,19.40
2018-12-01T01:48:51.270Z,19.87
2018-12-01T01:51:19.474Z,20.65
2018-12-01T01:53:47.869Z,18.90
2018-12-01T01:56:16.075Z,17.62
2018-12-01T01:58:44.275Z,18.77
2018-12-01T02:01:12.483Z,19.32
2018-12-01T02:03:40.682Z,19.05
2018-12-01T02:06:08.873Z,19.25
2018-12-01T02:08:37.080Z,20.60
2018-12-01T02:11:05.638Z,20.37
2018-12-01T02:13:33.825Z,20.75
2018-12-01T02:16:02.052Z,21.95
2018-12-01T02:18:30.242Z,19.95
2018-12-01T02:20:58.424Z,21.80
2018-12-01T02:23:26.835Z,20.92
2018-12-01T02:25:55.274Z,22.48
2018-12-01T02:28:23.450Z,21.87
2018-12-01T02:30:51.629Z,21.20
2018-12-01T02:33:19.816Z,22.15
2018-12-01T02:35:48.126Z,23.22
2018-12-01T02:38:16.272Z,23.27
2018-12-01T02:40:44.424Z,22.20
2018-12-01T02:43:12.642Z,22.00
2018-12-01T02:45:52.235Z,21.62
2018-12-01T02:48:20.449Z,24.77
2018-12-01T02:50:48.595Z,24.25
2018-12-01T02:53:16.762Z,21.68
2018-12-01T02:55:44.927Z,23.38
2018-12-01T02:58:13.097Z,23.98
2018-12-01T03:00:41.288Z,23.07
2018-12-01T03:03:09.443Z,22.22
2018-12-01T03:05:37.606Z,23.73
2018-12-01T03:08:06.761Z,23.00
2018-12-01T03:10:34.927Z,25.25
2018-12-01T03:13:03.070Z,23.85
2018-12-01T03:15:31.605Z,26.57
2018-12-01T03:17:59.782Z,26.07
2018-12-01T03:20:28.016Z,26.65
2018-12-01T03:22:56.373Z,24.10
2018-12-01T03:25:24.632Z,25.27
2018-12-01T03:27:53.624Z,24.57
2018-12-01T03:30:22.813Z,21.95
2018-12-01T03:32:51.643Z,26.62
2018-12-01T03:35:20.460Z,26.40
2018-12-01T03:37:49.427Z,25.40
2018-12-01T03:40:18.214Z,27.93
2018-12-01T03:42:46.418Z,28.80
2018-12-01T03:45:15.648Z,26.62
2018-12-01T03:47:43.867Z,26.40
2018-12-01T03:50:12.948Z,30.80
2018-12-01T03:52:41.600Z,29.12
2018-12-01T03:55:46.445Z,28.95
2018-12-01T03:58:14.658Z,26.87
2018-12-01T04:00:42.935Z,27.82
2018-12-01T04:03:11.095Z,27.30
2018-12-01T04:05:39.413Z,28.23
2018-12-01T04:08:07.604Z,28.62
2018-12-01T04:10:35.860Z,28.73
2018-12-01T04:13:04.099Z,30.72
2018-12-01T04:15:32.326Z,27.77
2018-12-01T04:18:00.611Z,29.42
2018-12-01T04:20:28.811Z,28.87
2018-12-01T04:22:57.052Z,32.42
2018-12-01T04:25:25.258Z,32.58
2018-12-01T04:27:53.475Z,36.38
2018-12-01T04:30:23.019Z,37.17
2018-12-01T04:32:51.366Z,40.60
2018-12-01T04:35:20.492Z,42.62
2018-12-01T04:37:49.890Z,41.37
2018-12-01T04:40:18.215Z,44.63
2018-12-01T04:42:46.977Z,41.15
2018-12-01T04:45:15.214Z,40.25
2018-12-01T04:47:43.547Z,41.05
2018-12-01T04:50:12.918Z,42.67
2018-12-01T04:52:41.435Z,39.90
2018-12-01T04:55:10.590Z,42.10
2018-12-01T04:57:38.750Z,38.63
2018-12-01T05:00:12.015Z,41.73
2018-12-01T05:02:40.197Z,38.08
2018-12-01T05:05:09.679Z,39.67
2018-12-01T05:07:37.877Z,37.05
2018-12-01T05:10:10.099Z,42.40
2018-12-01T05:12:38.243Z,37.50
2018-12-01T05:15:11.047Z,37.98
2018-12-01T05:17:39.373Z,40.30
2018-12-01T05:20:12.346Z,39.60
2018-12-01T05:22:40.505Z,38.10
2018-12-01T05:25:09.842Z,40.43
2018-12-01T05:27:37.988Z,40.50
2018-12-01T05:30:07.035Z,40.60
2018-12-01T05:32:35.502Z,42.95
2018-12-01T05:35:04.305Z,42.17
2018-12-01T05:37:32.499Z,41.85
2018-12-01T05:40:00.781Z,42.65
2018-12-01T05:42:28.952Z,40.73
2018-12-01T05:44:57.247Z,38.80
2018-12-01T05:47:25.391Z,41.23
2018-12-01T05:49:53.663Z,41.15
2018-12-01T05:52:21.802Z,39.08
2018-12-01T05:54:49.980Z,37.00
2018-12-01T05:57:18.095Z,35.92
2018-12-01T05:59:46.266Z,38.23
2018-12-01T06:02:14.428Z,34.18
2018-12-01T06:04:42.615Z,34.92
2018-12-01T06:07:10.843Z,33.38
2018-12-01T06:09:39.060Z,34.73
2018-12-01T06:12:07.238Z,36.03
2018-12-01T06:14:35.412Z,34.13
2018-12-01T06:17:03.576Z,37.10
2018-12-01T06:19:31.771Z,36.95
2018-12-01T06:22:00.086Z,36.63
2018-12-01T06:24:28.214Z,35.20
2018-12-01T06:26:56.388Z,34.83
2018-12-01T06:29:24.635Z,37.05
2018-12-01T06:31:52.937Z,36.30
2018-12-01T06:34:21.209Z,38.13
2018-12-01T06:36:49.407Z,37.00
2018-12-01T06:39:17.595Z,39.25
2018-12-01T06:41:45.830Z,38.38
2018-12-01T06:44:14.110Z,40.75
2018-12-01T06:46:42.382Z,39.25
2018-12-01T06:49:10.663Z,37.70
2018-12-01T06:51:38.846Z,40.63
2018-12-01T06:54:07.058Z,37.83
2018-12-01T06:56:35.277Z,38.58
2018-12-01T06:59:03.465Z,41.77
2018-12-01T07:01:31.738Z,37.88
2018-12-01T07:03:59.950Z,36.33
2018-12-01T07:06:28.174Z,34.67
2018-12-01T07:08:56.418Z,35.65
2018-12-01T07:11:24.635Z,35.17
2018-12-01T07:13:52.822Z,35.60
2018-12-01T07:16:21.008Z,33.28
2018-12-01T07:19:00.636Z,34.65
2018-12-01T07:21:28.845Z,33.50
2018-12-01T07:23:57.051Z,36.17
2018-12-01T07:26:25.293Z,35.78
2018-12-01T07:28:53.447Z,37.67
2018-12-01T07:31:21.606Z,37.03
2018-12-01T07:33:49.783Z,38.73
2018-12-01T07:36:17.938Z,35.05
2018-12-01T07:38:46.096Z,35.43
2018-12-01T07:41:18.014Z,33.98
2018-12-01T07:43:46.200Z,34.92
2018-12-01T07:46:15.518Z,32.08
2018-12-01T07:48:43.805Z,33.75
2018-12-01T07:51:12.658Z,34.95
2018-12-01T07:53:40.803Z,31.87
2018-12-01T07:56:08.982Z,34.27
2018-12-01T07:58:38.153Z,35.25
2018-12-01T08:01:06.350Z,31.33
2018-12-01T08:03:34.598Z,32.13
2018-12-01T08:06:02.770Z,28.98
2018-12-01T08:08:30.920Z,29.40
2018-12-01T08:10:59.101Z,28.12
2018-12-01T08:13:27.312Z,28.25
2018-12-01T08:15:55.588Z,27.62
2018-12-01T08:18:23.810Z,26.27
2018-12-01T08:20:52.592Z,26.02
2018-12-01T08:23:20.276Z,27.75
2018-12-01T08:25:48.457Z,25.75
2018-12-01T08:28:18.702Z,26.73
2018-12-01T08:30:46.949Z,24.40
2018-12-01T08:33:15.490Z,24.10
2018-12-01T08:35:44.948Z,21.85
2018-12-01T08:38:14.652Z,21.50
2018-12-01T08:40:43.253Z,23.18
2018-12-01T08:43:11.731Z,22.95
2018-12-01T08:45:40.468Z,23.30
2018-12-01T08:48:09.067Z,23.60
2018-12-01T08:50:37.651Z,22.80
2018-12-01T08:53:06.151Z,22.42
2018-12-01T08:55:34.403Z,23.27
2018-12-01T08:58:02.607Z,22.98
2018-12-01T09:00:34.699Z,21.45
2018-12-01T09:03:08.546Z,22.40
2018-12-01T09:05:36.864Z,22.32
2018-12-01T09:08:05.713Z,21.60
2018-12-01T09:10:33.976Z,21.27
2018-12-01T09:13:02.115Z,24.10
2018-12-01T09:15:30.986Z,21.82
2018-12-01T09:18:01.677Z,23.32
2018-12-01T09:20:30.143Z,21.15
2018-12-01T09:22:58.985Z,21.87
2018-12-01T09:25:27.797Z,20.90
2018-12-01T09:27:57.212Z,22.30
2018-12-01T09:30:27.074Z,21.95
2018-12-01T09:32:55.896Z,21.68
2018-12-01T09:35:24.476Z,24.07
2018-12-01T09:37:59.004Z,23.30
2018-12-01T09:40:28.060Z,22.55
2018-12-01T09:42:57.633Z,22.48
2018-12-01T09:45:26.302Z,20.85
2018-12-01T09:47:56.454Z,24.47
2018-12-01T09:50:24.905Z,23.10
2018-12-01T09:52:56.171Z,23.10
2018-12-01T09:55:28.447Z,22.85
2018-12-01T09:57:57.492Z,21.15
2018-12-01T10:00:28.738Z,21.57
2018-12-01T10:02:57.521Z,21.85
2018-12-01T10:05:25.975Z,23.07
2018-12-01T10:07:54.572Z,22.95
2018-12-01T10:10:25.059Z,22.20
2018-12-01T10:12:54.912Z,21.17
2018-12-01T10:15:25.769Z,19.60
2018-12-01T10:17:54.117Z,19.62
2018-12-01T10:20:30.223Z,21.00
2018-12-01T10:22:58.989Z,20.85
2018-12-01T10:25:27.762Z,20.27
2018-12-01T10:27:56.355Z,21.73
2018-12-01T10:30:24.919Z,21.90
2018-12-01T10:32:53.471Z,21.30
2018-12-01T10:35:23.878Z,22.37
2018-12-01T10:37:58.555Z,19.90
2018-12-01T10:40:27.094Z,20.35
2018-12-01T10:42:56.055Z,22.07
2018-12-01T10:45:24.585Z,20.20
2018-12-01T10:47:53.521Z,18.00
2018-12-01T10:50:23.720Z,19.67
2018-12-01T10:52:52.914Z,21.25
2018-12-01T10:55:24.435Z,18.15
2018-12-01T10:58:26.987Z,17.65
2018-12-01T11:01:00.580Z,17.98
2018-12-01T11:03:35.245Z,19.17
2018-12-01T11:06:06.955Z,20.20
2018-12-01T11:08:35.503Z,17.42
2018-12-01T11:11:04.522Z,20.45
2018-12-01T11:13:32.968Z,18.80
2018-12-01T11:16:01.236Z,17.65
2018-12-01T11:18:30.317Z,19.32
2018-12-01T11:20:59.684Z,17.30
2018-12-01T11:23:28.045Z,18.40
2018-12-01T11:25:56.390Z,17.95
2018-12-01T11:28:25.055Z,19.65
2018-12-01T11:30:53.630Z,17.55
2018-12-01T11:33:21.951Z,19.77
2018-12-01T11:35:55.823Z,18.70
2018-12-01T11:38:24.540Z,20.43
2018-12-01T11:40:52.993Z,21.10
2018-12-01T11:43:21.455Z,20.30
2018-12-01T11:45:50.617Z,17.82
2018-12-01T11:48:18.933Z,21.62
2018-12-01T11:50:47.234Z,20.75
2018-12-01T11:53:15.585Z,18.30
2018-12-01T11:55:43.823Z,20.50
2018-12-01T11:58:12.582Z,21.52
2018-12-01T12:00:40.903Z,19.07
2018-12-01T12:03:09.361Z,20.68
2018-12-01T12:05:38.281Z,19.62
2018-12-01T12:08:24.422Z,21.60
2018-12-01T12:10:53.150Z,22.22
2018-12-01T12:13:23.549Z,22.55
2018-12-01T12:15:51.970Z,20.10
2018-12-01T12:18:21.036Z,19.57
2018-12-01T12:20:49.155Z,19.92
2018-12-01T12:23:17.551Z,20.35
2018-12-01T12:25:46.099Z,19.67
2018-12-01T12:28:14.445Z,19.92
2018-12-01T12:30:42.699Z,19.55
2018-12-01T12:33:10.930Z,20.15
2018-12-01T12:35:39.217Z,19.95
2018-12-01T12:38:07.535Z,19.45
2018-12-01T12:40:35.878Z,21.02
2018-12-01T12:43:04.151Z,19.02
2018-12-01T12:45:32.453Z,18.92
2018-12-01T12:48:00.770Z,19.92
2018-12-01T12:50:29.010Z,19.35
2018-12-01T12:52:57.355Z,19.55
2018-12-01T12:55:26.268Z,19.40
2018-12-01T12:57:54.577Z,19.70
2018-12-01T13:00:24.626Z,19.37
2018-12-01T13:02:54.996Z,19.45
2018-12-01T13:05:26.679Z,19.85
2018-12-01T13:07:55.016Z,20.85
2018-12-01T13:10:24.085Z,17.73
2018-12-01T13:12:52.383Z,19.17
2018-12-01T13:15:20.563Z,20.35
2018-12-01T13:17:48.818Z,19.35
2018-12-01T13:20:17.868Z,19.92
2018-12-01T13:22:47.471Z,20.37
2018-12-01T13:25:15.998Z,20.25
2018-12-01T13:27:47.954Z,20.08
2018-12-01T13:30:19.480Z,20.02
2018-12-01T13:32:47.975Z,17.48
2018-12-01T13:35:16.211Z,19.60
2018-12-01T13:37:44.447Z,17.75
2018-12-01T13:40:15.375Z,16.80
2018-12-01T13:42:44.094Z,16.25
2018-12-01T13:45:15.339Z,17.65
2018-12-01T13:47:43.643Z,16.87
2018-12-01T13:50:15.599Z,16.93
2018-12-01T13:52:45.136Z,15.88
2018-12-01T13:55:13.323Z,17.10
2018-12-01T13:57:41.596Z,15.63
2018-12-01T14:00:13.924Z,18.55
2018-12-01T14:02:42.144Z,22.17
2018-12-01T14:05:11.068Z,16.32
2018-12-01T14:07:39.299Z,15.75
2018-12-01T14:10:14.415Z,15.72
2018-12-01T14:12:43.084Z,15.60
2018-12-01T14:15:14.244Z,16.37
2018-12-01T14:17:42.400Z,15.28
2018-12-01T14:20:12.747Z,15.15
2018-12-01T14:22:40.939Z,14.85
2018-12-01T14:25:10.137Z,13.53
2018-12-01T14:27:38.831Z,13.05
2018-12-01T14:30:09.494Z,11.63
2018-12-01T14:32:37.691Z,11.60
2018-12-01T14:35:08.890Z,13.00
2018-12-01T14:37:37.123Z,11.50
2018-12-01T14:40:07.485Z,12.18
2018-12-01T14:42:35.662Z,10.05
2018-12-01T14:45:04.018Z,11.60
2018-12-01T14:47:33.003Z,10.72
2018-12-01T14:50:01.443Z,11.55
2018-12-01T14:52:30.672Z,9.03
2018-12-01T14:54:58.911Z,11.12
2018-12-01T14:57:27.211Z,9.93
2018-12-01T14:59:55.679Z,11.15
2018-12-01T15:02:24.044Z,12.68
2018-12-01T15:04:52.292Z,12.75
2018-12-01T15:07:20.599Z,10.70
2018-12-01T15:09:49.035Z,10.38
2018-12-01T15:12:18.683Z,10.13
2018-12-01T15:14:47.174Z,10.23
2018-12-01T15:17:15.472Z,8.48
2018-12-01T15:19:44.331Z,9.90
2018-12-01T15:22:12.789Z,9.60
2018-12-01T15:24:41.974Z,11.10
2018-12-01T15:27:11.147Z,10.00
2018-12-01T15:29:41.901Z,10.45
2018-12-01T15:32:10.255Z,12.47
2018-12-01T15:34:38.582Z,9.18
2018-12-01T15:40:11.994Z,13.18
2018-12-01T15:42:40.235Z,10.32
2018-12-01T15:45:10.313Z,11.43
2018-12-01T15:47:40.872Z,12.75
2018-12-01T15:50:13.395Z,11.20
2018-12-01T15:52:41.926Z,11.70
2018-12-01T15:55:11.223Z,11.08
2018-12-01T15:57:39.577Z,10.35
2018-12-01T16:00:14.140Z,10.65
2018-12-01T16:02:42.522Z,11.55
2018-12-01T16:05:11.630Z,9.15
2018-12-01T16:07:42.481Z,9.95
2018-12-01T16:10:12.360Z,11.15
2018-12-01T16:12:40.618Z,11.22
2018-12-01T16:15:22.799Z,12.80
2018-12-01T16:17:51.233Z,12.75
2018-12-01T16:20:19.520Z,11.60
2018-12-01T16:22:47.727Z,10.93
2018-12-01T16:25:17.148Z,10.98
2018-12-01T16:27:45.967Z,11.05
2018-12-01T16:30:26.016Z,11.97
2018-12-01T16:32:56.369Z,10.90
2018-12-01T16:35:24.575Z,8.40
2018-12-01T16:37:52.818Z,8.60
2018-12-01T16:40:27.504Z,9.03
2018-12-01T16:42:56.817Z,9.90
2018-12-01T16:45:25.022Z,8.70
2018-12-01T16:47:53.232Z,8.35
2018-12-01T16:50:21.447Z,8.50
2018-12-01T16:52:49.574Z,8.85
2018-12-01T16:55:17.919Z,7.75
2018-12-01T16:57:46.079Z,9.35
2018-12-01T17:00:18.182Z,8.43
2018-12-01T17:02:47.631Z,8.25
2018-12-01T17:05:17.027Z,8.43
2018-12-01T17:07:45.293Z,7.72
2018-12-01T17:10:15.436Z,9.38
2018-12-01T17:12:44.127Z,8.65
2018-12-01T17:15:14.594Z,8.75
2018-12-01T17:17:42.785Z,8.48
2018-12-01T17:20:13.498Z,8.10
2018-12-01T17:22:43.618Z,7.65
2018-12-01T17:25:12.879Z,7.67
2018-12-01T17:27:41.252Z,7.75
2018-12-01T17:30:40.042Z,8.45
2018-12-01T17:33:08.300Z,7.70
2018-12-01T17:35:36.509Z,7.80
2018-12-01T17:38:06.886Z,8.53
2018-12-01T17:40:41.655Z,7.55
2018-12-01T17:43:11.257Z,8.30
2018-12-01T17:45:39.417Z,8.00
2018-12-01T17:48:07.826Z,8.25
2018-12-01T17:50:35.991Z,9.60
2018-12-01T17:53:04.151Z,8.65
2018-12-01T17:55:32.341Z,9.03
2018-12-01T17:58:00.510Z,8.60
2018-12-01T18:00:29.543Z,9.03
2018-12-01T18:03:00.920Z,9.25
2018-12-01T18:05:39.296Z,9.70
2018-12-01T18:08:11.445Z,8.53
2018-12-01T18:10:39.760Z,8.40
2018-12-01T18:13:07.938Z,8.00
2018-12-01T18:15:36.238Z,8.38
2018-12-01T18:18:04.533Z,8.53
2018-12-01T18:20:32.691Z,9.08
2018-12-01T18:23:01.887Z,8.63
2018-12-01T18:25:31.826Z,9.70
2018-12-01T18:27:59.993Z,7.78
2018-12-01T18:30:30.773Z,7.47
2018-12-01T18:33:03.010Z,7.80
2018-12-01T18:35:31.164Z,9.28
2018-12-01T18:37:59.327Z,9.05
2018-12-01T18:40:27.486Z,7.65
2018-12-01T18:42:55.648Z,8.05
2018-12-01T18:45:23.768Z,8.98
2018-12-01T18:47:52.415Z,9.58
2018-12-01T18:50:20.788Z,9.10
2018-12-01T18:52:54.528Z,8.95
2018-12-01T18:55:23.103Z,8.13
2018-12-01T18:57:51.393Z,6.80
2018-12-01T19:00:21.914Z,6.75
2018-12-01T19:02:50.105Z,6.80
2018-12-01T19:05:18.377Z,7.03
2018-12-01T19:07:46.676Z,6.95
2018-12-01T19:10:16.110Z,6.97
2018-12-01T19:12:44.568Z,7.10
2018-12-01T19:15:14.934Z,6.80
2018-12-01T19:17:43.683Z,7.12
2018-12-01T19:20:13.779Z,7.20
2018-12-01T19:22:42.148Z,5.85
2018-12-01T19:25:18.335Z,7.55
2018-12-01T19:27:47.585Z,6.78
2018-12-01T19:30:16.784Z,7.05
2018-12-01T19:32:49.136Z,8.08
2018-12-01T19:35:17.751Z,7.85
2018-12-01T19:37:48.326Z,7.42
2018-12-01T19:40:28.637Z,7.37
2018-12-01T19:42:53.070Z,7.78
2018-12-01T19:45:21.449Z,7.42
2018-12-01T19:47:49.995Z,7.87
2018-12-01T19:50:21.444Z,6.80
2018-12-01T19:52:50.754Z,6.53
2018-12-01T19:55:23.251Z,7.22
2018-12-01T19:57:51.703Z,6.85
2018-12-01T20:00:23.181Z,7.05
2018-12-01T20:02:51.571Z,6.62
2018-12-01T20:05:20.552Z,6.70
2018-12-01T20:07:49.811Z,7.80
2018-12-01T20:10:22.314Z,6.65
2018-12-01T20:12:53.164Z,6.58
2018-12-01T20:15:24.506Z,7.03
2018-12-01T20:20:31.438Z,7.15
2018-12-01T20:22:59.671Z,6.92
2018-12-01T20:25:27.964Z,6.62
2018-12-01T20:27:56.129Z,7.20
2018-12-01T20:30:24.349Z,6.85
2018-12-01T20:32:52.628Z,7.45
2018-12-01T20:35:25.713Z,6.25
2018-12-01T20:38:00.663Z,5.95
2018-12-01T20:40:28.976Z,6.30
2018-12-01T20:42:57.727Z,6.20
2018-12-01T20:45:26.096Z,6.40
2018-12-01T20:47:54.527Z,6.47
2018-12-01T20:50:27.329Z,8.58
2018-12-01T20:52:57.600Z,6.97
2018-12-01T20:55:28.227Z,6.30
2018-12-01T20:57:59.697Z,6.35
2018-12-01T21:03:11.801Z,6.72
2018-12-01T21:05:40.439Z,6.87
2018-12-01T21:08:15.323Z,6.70
2018-12-01T21:11:04.210Z,6.10
2018-12-01T21:13:52.039Z,6.53
2018-12-01T21:16:21.721Z,5.92
2018-12-01T21:21:36.739Z,5.37
2018-12-01T21:24:06.042Z,8.05
2018-12-01T21:26:42.262Z,6.40
2018-12-01T21:29:13.174Z,6.30
2018-12-01T21:31:48.650Z,5.58
2018-12-01T21:37:30.587Z,6.33
2018-12-01T21:39:58.827Z,7.45
2018-12-01T21:42:36.429Z,6.53
2018-12-01T21:45:25.617Z,6.35
2018-12-01T21:48:02.460Z,6.70
2018-12-01T21:50:31.183Z,7.45
2018-12-01T21:55:53.410Z,9.60
2018-12-01T22:12:30.137Z,7.50
2018-12-01T22:15:04.978Z,7.42
2018-12-01T22:17:49.658Z,7.40
2018-12-01T22:20:20.683Z,8.20
2018-12-01T22:22:56.825Z,8.40
2018-12-01T22:25:36.068Z,8.53
2018-12-01T22:34:14.176Z,7.45
2018-12-01T22:38:01.987Z,7.55
2018-12-01T22:43:22.478Z,8.33
2018-12-01T22:45:54.456Z,8.70
2018-12-01T22:48:28.759Z,7.97
2018-12-01T22:51:04.252Z,7.17
2018-12-01T22:53:36.792Z,7.65
2018-12-01T22:56:05.442Z,7.30
2018-12-01T22:58:47.915Z,8.13
2018-12-01T23:01:17.041Z,6.95
2018-12-01T23:03:45.418Z,8.25
2018-12-01T23:06:20.244Z,8.78
2018-12-01T23:08:50.007Z,7.70
2018-12-01T23:11:19.849Z,7.60
2018-12-01T23:13:48.650Z,8.98
2018-12-01T23:16:17.258Z,7.90
2018-12-01T23:18:45.462Z,9.23
2018-12-01T23:21:20.489Z,9.10
2018-12-01T23:23:44.458Z,7.70
2018-12-01T23:26:12.622Z,8.53
2018-12-01T23:28:40.867Z,9.98
2018-12-01T23:31:09.049Z,9.30
2018-12-01T23:33:37.242Z,8.78
2018-12-01T23:36:05.664Z,9.78
2018-12-01T23:38:33.887Z,10.23
2018-12-01T23:41:02.003Z,9.15
2018-12-01T23:43:30.122Z,10.23
2018-12-01T23:45:58.400Z,10.82
2018-12-01T23:48:26.702Z,8.50
2018-12-01T23:50:55.705Z,10.25
2018-12-01T23:53:24.928Z,9.98
2018-12-01T23:55:53.129Z,10.82
2018-12-01T23:58:21.244Z,8.95
